Time;durP1;ratioP1;P1;durP2;ratioP2;P2;SDS_P1;SDS_P2;PMS_P1;PMS_P2;Temp;Humidity;BMP_temperature;BMP_pressure;BME280_temperature;BME280_humidity;BME280_pressure;Samples;Min_cycle;Max_cycle;Signal;HPM_P1;HPM_P2
2024/01/15 00:00:20;;;;;;;5.65;4.30;;;5.40;71.40;;;;;;6094644;23;20105;-79
2024/01/15 00:02:47;;;;;;;5.40;3.88;;;5.40;71.10;;;;;;6093880;23;20022;-79
2024/01/15 00:05:13;;;;;;;6.75;4.30;;;5.40;71.70;;;;;;6093213;23;20350;-79
2024/01/15 00:07:39;;;;;;;5.88;4.03;;;5.40;71.60;;;;;;6094269;23;20019;-79
2024/01/15 00:10:05;;;;;;;6.78;3.63;;;5.40;71.60;;;;;;6092858;23;20514;-79
2024/01/15 00:12:31;;;;;;;5.40;3.97;;;5.40;71.50;;;;;;6094147;23;20018;-80
2024/01/15 00:14:57;;;;;;;6.20;4.15;;;5.40;71.30;;;;;;6092656;23;20093;-79
2024/01/15 00:17:23;;;;;;;5.20;3.97;;;5.40;71.30;;;;;;6068543;23;20030;-80
2024/01/15 00:19:49;;;;;;;7.85;4.07;;;5.40;71.00;;;;;;6094009;23;20523;-80
2024/01/15 00:22:15;;;;;;;7.40;4.72;;;5.40;71.20;;;;;;6067789;23;20013;-78
2024/01/15 00:24:41;;;;;;;6.00;4.28;;;5.40;71.20;;;;;;6068436;23;20018;-78
2024/01/15 00:27:07;;;;;;;5.53;3.97;;;5.40;71.00;;;;;;6093754;23;20023;-79
2024/01/15 00:29:34;;;;;;;6.07;3.85;;;5.40;71.00;;;;;;6093980;23;20525;-78
2024/01/15 00:32:00;;;;;;;6.97;4.80;;;5.40;70.90;;;;;;6093711;23;20044;-78
2024/01/15 00:34:26;;;;;;;5.53;3.63;;;5.40;70.90;;;;;;6091722;23;20046;-79
2024/01/15 00:36:52;;;;;;;6.78;4.00;;;5.40;70.90;;;;;;6094465;23;20014;-79
2024/01/15 00:39:18;;;;;;;6.72;4.18;;;5.40;70.70;;;;;;6068225;23;20026;-79
2024/01/15 00:41:44;;;;;;;5.68;3.92;;;5.40;70.70;;;;;;6094276;23;20026;-79
2024/01/15 00:44:11;;;;;;;6.28;4.68;;;5.40;70.50;;;;;;6068459;23;20018;-80
2024/01/15 00:46:46;;;;;;;5.60;3.92;;;5.40;70.50;;;;;;6093735;23;20365;-79
2024/01/15 00:49:13;;;;;;;4.40;3.53;;;5.40;70.50;;;;;;6093179;23;20093;-79
2024/01/15 00:51:40;;;;;;;5.93;3.67;;;5.40;70.40;;;;;;6094575;23;20094;-80
2024/01/15 00:54:06;;;;;;;4.10;3.60;;;5.40;70.30;;;;;;6094017;23;20050;-80
2024/01/15 00:56:32;;;;;;;6.38;4.07;;;5.40;70.20;;;;;;6094512;23;20106;-80
2024/01/15 00:58:58;;;;;;;6.10;4.28;;;5.40;71.00;;;;;;6093899;23;20038;-79
2024/01/15 01:01:24;;;;;;;6.15;3.95;;;5.40;70.30;;;;;;6093912;23;20018;-80
2024/01/15 01:03:50;;;;;;;6.50;3.92;;;5.40;70.20;;;;;;6093429;23;20017;-79
2024/01/15 01:06:16;;;;;;;6.72;4.05;;;5.40;70.20;;;;;;6094082;23;20018;-80
2024/01/15 01:08:42;;;;;;;5.57;4.10;;;5.40;70.30;;;;;;6068299;23;20026;-78
2024/01/15 01:11:12;;;;;;;5.88;4.30;;;5.40;70.60;;;;;;6092767;23;20041;-79
2024/01/15 01:13:38;;;;;;;6.78;4.28;;;5.40;71.10;;;;;;6094089;23;20042;-80
2024/01/15 01:16:04;;;;;;;5.55;3.92;;;5.40;71.10;;;;;;6093637;23;20021;-79
2024/01/15 01:18:30;;;;;;;5.00;3.65;;;5.40;71.20;;;;;;6094859;23;20093;-79
2024/01/15 01:20:56;;;;;;;5.13;3.95;;;5.40;71.70;;;;;;6092307;23;20118;-80
2024/01/15 01:23:22;;;;;;;5.78;4.25;;;5.50;71.60;;;;;;6093045;23;20069;-79
2024/01/15 01:25:48;;;;;;;5.40;3.97;;;5.40;71.20;;;;;;6092291;23;20018;-79
2024/01/15 01:28:14;;;;;;;5.43;3.50;;;5.40;71.20;;;;;;6067384;23;20048;-77
2024/01/15 01:30:40;;;;;;;7.50;3.88;;;5.40;71.20;;;;;;6093778;23;20085;-78
2024/01/15 01:33:06;;;;;;;4.78;3.95;;;5.40;71.10;;;;;;6091425;23;20046;-78
2024/01/15 01:35:32;;;;;;;5.88;4.05;;;5.40;70.90;;;;;;6093755;23;20018;-78
2024/01/15 01:37:58;;;;;;;6.15;4.38;;;5.50;70.90;;;;;;6093144;23;20025;-77
2024/01/15 01:40:24;;;;;;;5.32;4.13;;;5.40;70.70;;;;;;6094678;23;20041;-78
2024/01/15 01:42:50;;;;;;;5.68;3.80;;;5.40;70.60;;;;;;6095390;23;20113;-78
2024/01/15 01:45:16;;;;;;;6.88;4.40;;;5.50;70.50;;;;;;6094730;23;20022;-78
2024/01/15 01:47:43;;;;;;;6.10;4.40;;;5.40;70.40;;;;;;6093049;23;20034;-78
2024/01/15 01:50:09;;;;;;;5.38;4.00;;;5.40;70.30;;;;;;6093497;23;20015;-77
2024/01/15 01:52:36;;;;;;;5.57;4.10;;;5.40;70.20;;;;;;6094646;23;20019;-77
2024/01/15 01:55:03;;;;;;;6.63;3.95;;;5.40;70.20;;;;;;6094582;23;20018;-78
2024/01/15 01:57:30;;;;;;;8.27;4.20;;;5.40;70.10;;;;;;6095105;23;20739;-78
2024/01/15 01:59:57;;;;;;;5.30;4.35;;;5.40;70.00;;;;;;6093140;23;20493;-78
2024/01/15 02:02:24;;;;;;;5.80;4.30;;;5.40;70.00;;;;;;6094669;23;20022;-77
2024/01/15 02:04:50;;;;;;;6.60;4.70;;;5.40;69.90;;;;;;6069341;23;20018;-77
2024/01/15 02:07:17;;;;;;;5.07;4.13;;;5.40;69.80;;;;;;6094434;23;20030;-78
2024/01/15 02:09:44;;;;;;;5.97;4.43;;;5.40;69.80;;;;;;6095465;23;20021;-79
2024/01/15 02:12:11;;;;;;;6.38;4.55;;;5.40;69.80;;;;;;6093493;23;20046;-78
2024/01/15 02:14:37;;;;;;;6.07;4.47;;;5.40;69.90;;;;;;6069531;23;20026;-78
2024/01/15 02:17:03;;;;;;;4.90;3.85;;;5.40;70.00;;;;;;6094721;23;20029;-78
2024/01/15 02:19:29;;;;;;;6.07;4.38;;;5.40;70.00;;;;;;6094855;23;20014;-79
2024/01/15 02:21:55;;;;;;;4.75;3.95;;;5.40;70.10;;;;;;6095142;23;20011;-79
2024/01/15 02:24:21;;;;;;;5.50;4.25;;;5.40;70.00;;;;;;6095114;23;20565;-79
2024/01/15 02:26:48;;;;;;;7.15;4.97;;;5.40;70.70;;;;;;6093313;23;20025;-79
2024/01/15 02:29:15;;;;;;;5.55;4.18;;;5.40;70.50;;;;;;6093430;23;20604;-79
2024/01/15 02:31:41;;;;;;;6.90;4.72;;;5.40;70.90;;;;;;6095064;23;20029;-80
2024/01/15 02:34:07;;;;;;;5.47;4.18;;;5.50;71.00;;;;;;6094976;23;20018;-79
2024/01/15 02:36:33;;;;;;;6.05;4.15;;;5.40;71.20;;;;;;6095414;23;20010;-79
2024/01/15 02:38:59;;;;;;;7.60;5.05;;;5.50;71.30;;;;;;6068977;23;20023;-79
2024/01/15 02:41:25;;;;;;;6.03;4.20;;;5.40;70.90;;;;;;6093088;23;20466;-79
2024/01/15 02:43:51;;;;;;;7.75;4.90;;;5.50;70.90;;;;;;6094989;23;20089;-78
2024/01/15 02:46:17;;;;;;;6.55;4.60;;;5.50;70.70;;;;;;6094186;23;20018;-78
2024/01/15 02:48:43;;;;;;;6.80;4.53;;;5.50;70.70;;;;;;6093291;23;20454;-79
2024/01/15 02:51:09;;;;;;;6.43;4.28;;;5.40;70.60;;;;;;6095019;23;20101;-80
2024/01/15 02:53:37;;;;;;;5.90;4.32;;;5.50;70.50;;;;;;6093091;23;20113;-79
2024/01/15 02:56:03;;;;;;;6.28;4.65;;;5.50;70.50;;;;;;6094723;23;20018;-78
2024/01/15 02:58:29;;;;;;;5.63;4.10;;;5.50;70.30;;;;;;6093946;23;20019;-79
2024/01/15 03:00:55;;;;;;;7.22;4.60;;;5.50;70.20;;;;;;6095214;23;20014;-79
2024/01/15 03:03:21;;;;;;;7.85;4.78;;;5.50;70.10;;;;;;6094627;23;20049;-79
2024/01/15 03:05:47;;;;;;;7.53;5.05;;;5.50;70.00;;;;;;6094546;23;20022;-79
2024/01/15 03:08:13;;;;;;;8.65;4.82;;;5.50;69.60;;;;;;6094009;23;20026;-79
2024/01/15 03:10:39;;;;;;;6.65;4.78;;;5.50;69.60;;;;;;6094423;23;20098;-79
2024/01/15 03:13:05;;;;;;;8.43;4.35;;;5.50;69.70;;;;;;6094474;23;20470;-80
2024/01/15 03:15:30;;;;;;;7.20;5.15;;;5.50;69.80;;;;;;6094000;23;20015;-79
2024/01/15 03:17:56;;;;;;;7.07;4.65;;;5.50;69.80;;;;;;6094657;23;20154;-79
2024/01/15 03:20:22;;;;;;;7.95;4.75;;;5.50;69.70;;;;;;6069304;23;20022;-79
2024/01/15 03:22:49;;;;;;;6.90;4.40;;;5.50;69.60;;;;;;6093060;23;20042;-79
2024/01/15 03:25:15;;;;;;;7.32;4.70;;;5.50;69.70;;;;;;6068691;23;20022;-79
2024/01/15 03:27:41;;;;;;;6.82;5.05;;;5.50;69.70;;;;;;6094319;23;20045;-79
2024/01/15 03:30:07;;;;;;;6.70;4.82;;;5.50;69.60;;;;;;6092194;23;20085;-79
2024/01/15 03:32:33;;;;;;;5.93;5.10;;;5.50;69.60;;;;;;6094142;23;20022;-80
2024/01/15 03:35:00;;;;;;;6.32;4.70;;;5.50;69.70;;;;;;6093718;23;20051;-79
2024/01/15 03:37:26;;;;;;;5.45;4.30;;;5.50;69.70;;;;;;6095349;23;20019;-80
2024/01/15 03:39:52;;;;;;;6.57;4.60;;;5.50;70.00;;;;;;6092723;23;20006;-79
2024/01/15 03:42:18;;;;;;;6.10;4.32;;;5.50;70.30;;;;;;6094015;23;20081;-79
2024/01/15 03:44:44;;;;;;;7.00;4.60;;;5.50;70.40;;;;;;6068330;23;20019;-79
2024/01/15 03:47:10;;;;;;;7.30;4.90;;;5.50;70.60;;;;;;6093646;23;20026;-79
2024/01/15 03:49:36;;;;;;;6.90;4.97;;;5.50;70.70;;;;;;6092906;23;20097;-80
2024/01/15 03:52:02;;;;;;;7.57;5.07;;;5.50;70.80;;;;;;6069073;23;20017;-78
2024/01/15 03:54:28;;;;;;;8.07;5.07;;;5.50;70.60;;;;;;6062718;23;20010;-79
2024/01/15 03:56:54;;;;;;;7.10;4.70;;;5.50;70.50;;;;;;6091114;23;20351;-79
2024/01/15 03:59:20;;;;;;;7.38;5.00;;;5.50;70.50;;;;;;6091719;23;20023;-79
2024/01/15 04:01:53;;;;;;;10.98;5.03;;;5.60;70.50;;;;;;6091388;23;20466;-80
2024/01/15 04:04:19;;;;;;;7.65;5.00;;;5.60;70.60;;;;;;6067814;23;20602;-78
2024/01/15 04:06:45;;;;;;;7.90;4.78;;;5.50;70.30;;;;;;6092563;23;20334;-78
2024/01/15 04:09:13;;;;;;;7.28;4.88;;;5.50;70.20;;;;;;6091925;23;20023;-78
2024/01/15 04:11:39;;;;;;;7.45;5.30;;;5.60;70.10;;;;;;6093180;23;20022;-79
2024/01/15 04:14:06;;;;;;;6.63;4.80;;;5.60;70.00;;;;;;6066635;23;20026;-78
2024/01/15 04:16:31;;;;;;;7.90;4.88;;;5.50;69.90;;;;;;6092803;23;20029;-78
2024/01/15 04:18:58;;;;;;;9.25;5.35;;;5.60;69.80;;;;;;6093655;23;20025;-78
2024/01/15 04:21:24;;;;;;;7.35;5.20;;;5.60;69.60;;;;;;6092273;23;20485;-79
2024/01/15 04:23:50;;;;;;;6.22;5.03;;;5.60;69.50;;;;;;6092755;23;20022;-77
2024/01/15 04:26:16;;;;;;;7.55;5.25;;;5.50;69.50;;;;;;6093114;23;20014;-78
2024/01/15 04:28:42;;;;;;;6.50;5.00;;;5.60;69.50;;;;;;6090988;23;20019;-77
2024/01/15 04:31:08;;;;;;;8.02;5.18;;;5.50;69.50;;;;;;6067287;23;20011;-76
2024/01/15 04:33:34;;;;;;;7.38;5.03;;;5.50;69.50;;;;;;6093850;23;20044;-76
2024/01/15 04:36:05;;;;;;;6.65;5.20;;;5.50;69.40;;;;;;6092985;23;20428;-77
2024/01/15 04:38:32;;;;;;;7.35;5.05;;;5.60;69.40;;;;;;6093072;23;20025;-81
2024/01/15 04:40:58;;;;;;;7.70;4.55;;;5.50;69.40;;;;;;6091716;23;20014;-80
2024/01/15 04:43:24;;;;;;;9.40;4.82;;;5.50;69.40;;;;;;6068150;23;20026;-81
2024/01/15 04:45:50;;;;;;;9.30;5.45;;;5.60;69.60;;;;;;6094084;23;20451;-78
2024/01/15 04:48:16;;;;;;;8.77;5.10;;;5.50;69.40;;;;;;6092783;23;20537;-77
2024/01/15 04:50:42;;;;;;;7.45;5.03;;;5.50;69.60;;;;;;6092516;23;20087;-79
2024/01/15 04:53:08;;;;;;;8.50;5.47;;;5.50;70.00;;;;;;6093755;23;20026;-80
2024/01/15 04:55:34;;;;;;;8.20;5.45;;;5.60;70.30;;;;;;6094577;23;20554;-79
2024/01/15 04:58:00;;;;;;;7.05;5.43;;;5.60;71.30;;;;;;6067689;23;20054;-79
2024/01/15 05:00:26;;;;;;;11.02;5.78;;;5.60;71.20;;;;;;6091936;23;20042;-78
2024/01/15 05:02:52;;;;;;;11.98;5.95;;;5.60;71.50;;;;;;6093201;23;20022;-79
2024/01/15 05:05:18;;;;;;;11.63;5.50;;;5.60;72.00;;;;;;6067019;23;20045;-78
2024/01/15 05:07:44;;;;;;;10.93;5.88;;;5.60;72.10;;;;;;6091405;23;20519;-79
2024/01/15 05:10:10;;;;;;;9.13;5.85;;;5.70;72.20;;;;;;6092470;23;20019;-78
2024/01/15 05:12:36;;;;;;;11.40;6.35;;;5.70;72.30;;;;;;6067762;23;20014;-78
2024/01/15 05:15:03;;;;;;;10.30;6.25;;;5.70;73.20;;;;;;6067972;23;20030;-77
2024/01/15 05:17:30;;;;;;;8.57;6.07;;;5.70;73.00;;;;;;6093387;23;20157;-77
2024/01/15 05:19:56;;;;;;;8.95;6.28;;;5.70;72.90;;;;;;6093062;23;20332;-77
2024/01/15 05:22:24;;;;;;;11.00;7.03;;;5.70;72.70;;;;;;6067798;23;20390;-79
2024/01/15 05:24:50;;;;;;;8.88;6.28;;;5.60;72.10;;;;;;6093519;23;20053;-78
2024/01/15 05:27:16;;;;;;;11.50;7.00;;;5.70;72.30;;;;;;6093342;23;20386;-79
2024/01/15 05:29:42;;;;;;;10.40;6.72;;;5.70;72.10;;;;;;6093557;23;20033;-79
2024/01/15 05:32:08;;;;;;;11.93;6.82;;;5.70;71.80;;;;;;6092509;23;20022;-79
2024/01/15 05:34:34;;;;;;;9.68;6.20;;;5.70;71.60;;;;;;6091439;23;20390;-79
2024/01/15 05:37:00;;;;;;;8.77;6.10;;;5.70;71.50;;;;;;6091707;23;20334;-79
2024/01/15 05:39:26;;;;;;;8.35;6.35;;;5.70;71.40;;;;;;6092673;23;20018;-79
2024/01/15 05:41:52;;;;;;;9.90;5.85;;;5.70;71.30;;;;;;6091401;23;20026;-87
2024/01/15 05:44:18;;;;;;;8.63;6.25;;;5.70;71.50;;;;;;6093316;23;20422;-79
2024/01/15 05:46:44;;;;;;;8.73;6.43;;;5.80;73.90;;;;;;6093076;23;20026;-80
2024/01/15 05:49:10;;;;;;;12.68;7.15;;;5.90;75.80;;;;;;6094917;23;20014;-88
2024/01/15 05:51:36;;;;;;;11.63;7.82;;;6.00;76.10;;;;;;6101754;23;20010;-79
2024/01/15 05:54:21;;;;;;;9.18;6.35;;;6.10;76.30;;;;;;6092138;23;20038;-79
2024/01/15 05:56:47;;;;;;;9.23;5.93;;;6.10;76.50;;;;;;6092481;23;20023;-78
2024/01/15 05:59:13;;;;;;;10.35;6.20;;;6.10;75.30;;;;;;6092624;23;20065;-78
2024/01/15 06:01:39;;;;;;;10.23;6.43;;;6.10;74.30;;;;;;6092131;23;20025;-79
2024/01/15 06:04:06;;;;;;;11.48;7.30;;;6.10;73.60;;;;;;6092697;23;20101;-78
2024/01/15 06:06:32;;;;;;;10.23;7.40;;;6.10;72.90;;;;;;6091991;23;20019;-78
2024/01/15 06:09:05;;;;;;;11.05;7.05;;;6.10;72.40;;;;;;6090616;23;20022;-77
2024/01/15 06:11:32;;;;;;;11.02;7.45;;;6.10;72.10;;;;;;6091022;23;20078;-77
2024/01/15 06:13:58;;;;;;;10.68;7.05;;;6.10;71.60;;;;;;6090955;23;20030;-78
2024/01/15 06:16:24;;;;;;;13.00;8.00;;;6.10;71.20;;;;;;6092584;23;20018;-78
2024/01/15 06:18:50;;;;;;;12.43;7.95;;;6.10;71.00;;;;;;6091339;23;20021;-79
2024/01/15 06:21:17;;;;;;;12.25;7.75;;;6.10;70.60;;;;;;6067736;23;20154;-79
2024/01/15 06:23:43;;;;;;;13.65;7.78;;;6.10;70.30;;;;;;6094437;23;20077;-78
2024/01/15 06:26:11;;;;;;;11.25;7.85;;;6.10;70.20;;;;;;6094233;23;20014;-78
2024/01/15 06:28:37;;;;;;;10.95;7.50;;;6.10;70.00;;;;;;6092803;23;20018;-78
2024/01/15 06:31:04;;;;;;;11.18;7.07;;;6.10;70.10;;;;;;6093943;23;20006;-79
2024/01/15 06:33:30;;;;;;;9.30;6.85;;;6.10;70.00;;;;;;6068967;23;20390;-78
2024/01/15 06:35:56;;;;;;;10.23;7.50;;;6.10;69.70;;;;;;6094242;23;20019;-78
2024/01/15 06:38:23;;;;;;;10.82;7.10;;;6.10;69.70;;;;;;6092728;23;20077;-78
2024/01/15 06:40:49;;;;;;;9.80;7.30;;;6.10;69.50;;;;;;6092780;23;20105;-78
2024/01/15 06:43:15;;;;;;;9.80;6.70;;;6.10;69.60;;;;;;6094354;23;20542;-78
2024/01/15 06:45:41;;;;;;;8.50;6.65;;;6.10;69.60;;;;;;6095167;23;20420;-78
2024/01/15 06:48:08;;;;;;;12.77;7.93;;;6.10;69.40;;;;;;6094140;23;20034;-78
2024/01/15 06:50:34;;;;;;;8.98;6.72;;;6.10;69.20;;;;;;6068630;23;20026;-79
2024/01/15 06:53:00;;;;;;;11.40;6.90;;;6.10;69.20;;;;;;6093617;23;20026;-78
2024/01/15 06:55:26;;;;;;;10.98;7.93;;;6.10;69.20;;;;;;6068764;23;20105;-78
2024/01/15 06:57:52;;;;;;;10.23;7.50;;;6.00;69.30;;;;;;6068670;23;20011;-79
2024/01/15 07:00:19;;;;;;;10.18;7.00;;;6.00;69.20;;;;;;6094352;23;20014;-80
2024/01/15 07:02:45;;;;;;;9.95;7.07;;;6.00;69.20;;;;;;6093968;23;20078;-79
2024/01/15 07:05:12;;;;;;;10.98;7.05;;;6.00;69.10;;;;;;6093851;23;20089;-78
2024/01/15 07:07:38;;;;;;;10.77;7.47;;;6.00;69.10;;;;;;6093773;23;20014;-78
2024/01/15 07:10:05;;;;;;;10.52;7.20;;;6.00;69.10;;;;;;6093671;23;20057;-79
2024/01/15 07:12:31;;;;;;;10.43;7.05;;;6.00;69.00;;;;;;6068362;23;20080;-79
2024/01/15 07:14:57;;;;;;;9.65;6.88;;;6.00;69.10;;;;;;6068152;23;20459;-79
2024/01/15 07:17:23;;;;;;;10.82;7.40;;;6.00;69.30;;;;;;6091963;23;20482;-79
2024/01/15 07:19:49;;;;;;;9.88;7.30;;;6.00;69.20;;;;;;6093730;23;20075;-79
2024/01/15 07:22:17;;;;;;;12.50;7.53;;;6.00;69.20;;;;;;6091334;23;20018;-78
2024/01/15 07:24:43;;;;;;;11.70;7.28;;;6.10;69.30;;;;;;6090915;23;20085;-78
2024/01/15 07:27:10;;;;;;;12.95;8.60;;;6.10;69.40;;;;;;6064905;23;20541;-77
2024/01/15 07:29:37;;;;;;;8.85;6.97;;;6.10;69.10;;;;;;6090899;23;20082;-77
2024/01/15 07:32:04;;;;;;;10.07;7.20;;;6.10;69.20;;;;;;6091240;23;20022;-77
2024/01/15 07:34:49;;;;;;;11.23;8.15;;;6.10;69.30;;;;;;6091544;23;20105;-77
2024/01/15 07:37:15;;;;;;;11.40;7.87;;;6.10;69.10;;;;;;6090549;23;20140;-77
2024/01/15 07:39:41;;;;;;;12.02;8.10;;;6.10;69.30;;;;;;6089836;23;20242;-77
2024/01/15 07:42:07;;;;;;;11.98;8.07;;;6.10;69.10;;;;;;6090643;23;20367;-77
2024/01/15 07:44:33;;;;;;;11.75;7.53;;;6.10;68.90;;;;;;6064414;23;20026;-77
2024/01/15 07:46:59;;;;;;;9.48;7.07;;;6.20;69.00;;;;;;6088698;23;20026;-77
2024/01/15 07:49:25;;;;;;;12.07;7.22;;;6.10;69.10;;;;;;6091327;23;20026;-78
2024/01/15 07:51:51;;;;;;;9.77;7.10;;;6.10;69.00;;;;;;6091918;23;20077;-78
2024/01/15 07:54:17;;;;;;;10.45;7.13;;;6.10;69.10;;;;;;6068278;23;20112;-78
2024/01/15 07:57:05;;;;;;;10.52;7.45;;;6.10;69.00;;;;;;6091979;23;20119;-77
2024/01/15 07:59:31;;;;;;;10.82;6.68;;;6.10;68.90;;;;;;6066588;23;20050;-78
2024/01/15 08:01:59;;;;;;;10.38;6.88;;;6.10;69.00;;;;;;6092129;23;20477;-77
2024/01/15 08:04:25;;;;;;;10.38;7.18;;;6.20;69.00;;;;;;6092654;23;20010;-78
2024/01/15 08:06:51;;;;;;;10.25;6.53;;;6.10;68.80;;;;;;6093096;23;20315;-77
2024/01/15 08:09:17;;;;;;;10.50;7.70;;;6.10;68.90;;;;;;6092448;23;20019;-80
2024/01/15 08:11:43;;;;;;;8.27;6.55;;;6.10;68.80;;;;;;6091503;23;20533;-78
2024/01/15 08:14:10;;;;;;;11.20;7.55;;;6.10;68.90;;;;;;6090480;23;20027;-78
2024/01/15 08:16:37;;;;;;;10.73;6.97;;;6.10;68.90;;;;;;6090695;23;20022;-78
2024/01/15 08:19:03;;;;;;;9.30;6.78;;;6.10;68.90;;;;;;6088218;23;20014;-78
2024/01/15 08:21:32;;;;;;;9.65;6.65;;;6.10;68.90;;;;;;6065201;23;20017;-79
2024/01/15 08:24:02;;;;;;;9.82;7.10;;;6.10;68.90;;;;;;6089120;23;20018;-79
2024/01/15 08:26:29;;;;;;;9.95;6.93;;;6.10;68.90;;;;;;6090585;23;20026;-80
2024/01/15 08:28:55;;;;;;;10.13;7.43;;;6.10;69.10;;;;;;6059887;23;20037;-79
2024/01/15 08:31:22;;;;;;;9.93;7.35;;;6.10;69.10;;;;;;6088212;23;20026;-79
2024/01/15 08:33:48;;;;;;;9.52;7.00;;;6.20;69.50;;;;;;6062214;23;20525;-80
2024/01/15 08:36:14;;;;;;;9.65;7.03;;;6.20;69.40;;;;;;6086837;23;20018;-81
2024/01/15 08:38:40;;;;;;;10.05;7.63;;;6.20;69.20;;;;;;6085445;23;20026;-79
2024/01/15 08:41:08;;;;;;;10.73;7.15;;;6.20;69.10;;;;;;6086703;23;20426;-80
2024/01/15 08:43:34;;;;;;;8.80;6.47;;;6.20;69.30;;;;;;6085803;23;20033;-79
2024/01/15 08:46:01;;;;;;;9.25;6.40;;;6.20;69.30;;;;;;6061591;23;20010;-82
2024/01/15 08:48:29;;;;;;;9.77;6.80;;;6.20;69.30;;;;;;6037023;23;20022;-80
2024/01/15 08:50:56;;;;;;;10.45;5.60;;;6.40;74.30;;;;;;6086838;23;20033;-86
2024/01/15 08:53:23;;;;;;;8.68;5.30;;;6.60;78.30;;;;;;6062345;23;20026;-83
2024/01/15 08:55:49;;;;;;;7.15;5.53;;;6.80;78.50;;;;;;6086531;23;20353;-82
2024/01/15 08:58:16;;;;;;;7.88;4.70;;;7.10;78.90;;;;;;6086894;23;20022;-80
2024/01/15 09:00:42;;;;;;;6.88;5.15;;;7.20;78.70;;;;;;6086848;23;20014;-79
2024/01/15 09:03:08;;;;;;;7.10;4.75;;;7.20;74.80;;;;;;6085602;23;20026;-80
2024/01/15 09:05:34;;;;;;;10.00;6.72;;;7.20;73.20;;;;;;6038613;23;20019;-83
2024/01/15 09:08:00;;;;;;;7.90;5.90;;;7.10;72.10;;;;;;6086472;23;20477;-82
2024/01/15 09:10:26;;;;;;;9.38;6.50;;;7.10;71.50;;;;;;6089178;23;20022;-81
2024/01/15 09:12:53;;;;;;;8.35;6.13;;;7.10;71.00;;;;;;6037702;23;20040;-78
2024/01/15 09:15:19;;;;;;;9.13;6.55;;;7.10;70.80;;;;;;6085855;23;20022;-80
2024/01/15 09:17:46;;;;;;;9.88;6.88;;;7.00;70.40;;;;;;6086540;23;20019;-79
2024/01/15 09:20:12;;;;;;;8.68;6.20;;;7.00;70.00;;;;;;6083943;23;20025;-78
2024/01/15 09:22:42;;;;;;;10.02;7.00;;;7.00;69.90;;;;;;6086162;23;20836;-80
2024/01/15 09:25:11;;;;;;;10.40;7.00;;;7.00;70.70;;;;;;6084513;23;20077;-78
2024/01/15 09:27:37;;;;;;;9.40;7.15;;;7.00;69.90;;;;;;6060992;23;20041;-80
2024/01/15 09:30:04;;;;;;;9.05;6.97;;;7.00;70.00;;;;;;6086331;23;20022;-79
2024/01/15 09:32:32;;;;;;;9.00;6.25;;;7.00;69.80;;;;;;6085974;23;20057;-81
2024/01/15 09:34:59;;;;;;;8.38;6.45;;;7.00;70.00;;;;;;6060799;23;20022;-79
2024/01/15 09:37:25;;;;;;;10.50;6.78;;;6.90;69.90;;;;;;6060671;23;20749;-80
2024/01/15 09:39:51;;;;;;;10.75;6.68;;;6.90;70.30;;;;;;6061440;23;20010;-79
2024/01/15 09:42:18;;;;;;;9.95;6.47;;;6.90;70.40;;;;;;6087078;23;20425;-80
2024/01/15 09:44:45;;;;;;;10.63;6.68;;;7.00;70.90;;;;;;6087265;23;20029;-82
2024/01/15 09:47:12;;;;;;;9.13;6.53;;;7.00;71.10;;;;;;6060433;23;20365;-81
2024/01/15 09:49:40;;;;;;;9.90;7.05;;;7.00;70.50;;;;;;6087434;23;20140;-79
2024/01/15 09:52:07;;;;;;;11.02;7.00;;;6.90;71.00;;;;;;6087394;23;20014;-80
2024/01/15 09:54:34;;;;;;;9.00;6.78;;;7.00;71.10;;;;;;6087756;23;20014;-81
2024/01/15 09:57:01;;;;;;;10.15;6.90;;;7.00;71.10;;;;;;6087958;23;20667;-81
2024/01/15 09:59:28;;;;;;;8.73;6.47;;;6.90;71.10;;;;;;6090335;23;20025;-80
2024/01/15 10:01:57;;;;;;;13.48;6.32;;;6.90;70.80;;;;;;6088334;23;20018;-80
2024/01/15 10:04:23;;;;;;;9.35;7.13;;;6.90;70.70;;;;;;6063010;23;20014;-79
2024/01/15 10:06:51;;;;;;;10.82;6.55;;;6.90;70.80;;;;;;6088516;23;20006;-81
2024/01/15 10:09:17;;;;;;;10.32;6.82;;;7.00;70.90;;;;;;6088139;23;20550;-80
2024/01/15 10:11:45;;;;;;;8.55;6.47;;;6.90;70.80;;;;;;6089068;23;20038;-80
2024/01/15 10:14:15;;;;;;;7.57;6.07;;;6.90;70.70;;;;;;6086504;23;20026;-81
2024/01/15 10:16:42;;;;;;;8.95;6.97;;;6.90;70.80;;;;;;6086014;23;20018;-79
2024/01/15 10:19:08;;;;;;;10.80;6.97;;;6.90;70.80;;;;;;6060910;23;20097;-80
2024/01/15 10:21:35;;;;;;;9.93;6.95;;;6.90;70.60;;;;;;6038588;23;20010;-80
2024/01/15 10:24:03;;;;;;;9.63;7.53;;;6.90;70.60;;;;;;6088913;23;20045;-81
2024/01/15 10:26:29;;;;;;;10.85;7.38;;;6.90;70.90;;;;;;6086907;23;20025;-81
2024/01/15 10:28:55;;;;;;;9.77;6.68;;;6.90;70.80;;;;;;6086249;23;20062;-82
2024/01/15 10:31:21;;;;;;;8.82;7.05;;;6.90;71.20;;;;;;6062279;23;20042;-81
2024/01/15 10:34:09;;;;;;;9.98;7.05;;;6.80;71.00;;;;;;6087322;23;20021;-80
2024/01/15 10:36:35;;;;;;;8.55;6.70;;;6.90;70.90;;;;;;6062513;23;20018;-79
2024/01/15 10:39:02;;;;;;;9.98;6.95;;;6.80;71.00;;;;;;6038241;23;20106;-80
2024/01/15 10:41:29;;;;;;;9.27;6.50;;;6.80;71.20;;;;;;6085260;23;20070;-79
2024/01/15 10:43:55;;;;;;;11.35;7.20;;;6.90;71.40;;;;;;6085834;23;20783;-79
2024/01/15 10:46:21;;;;;;;9.70;6.22;;;6.90;71.40;;;;;;6061640;23;20010;-80
2024/01/15 10:48:47;;;;;;;8.63;6.93;;;6.80;72.00;;;;;;6042097;23;20018;-81
2024/01/15 10:51:15;;;;;;;10.15;6.78;;;6.80;72.50;;;;;;6040771;23;20357;-81
2024/01/15 10:53:42;;;;;;;10.15;7.07;;;6.90;72.70;;;;;;6089089;23;20030;-82
2024/01/15 10:56:11;;;;;;;11.27;6.78;;;6.90;73.30;;;;;;6089625;23;20061;-80
2024/01/15 10:58:40;;;;;;;8.75;6.70;;;6.90;73.20;;;;;;6089395;23;20022;-80
2024/01/15 11:01:06;;;;;;;9.85;7.30;;;6.90;73.00;;;;;;6065345;23;20073;-81
2024/01/15 11:03:33;;;;;;;10.75;7.35;;;6.90;73.00;;;;;;6090806;23;20065;-81
2024/01/15 11:05:59;;;;;;;11.85;7.55;;;6.90;73.10;;;;;;6089357;23;20101;-81
2024/01/15 11:08:26;;;;;;;9.70;7.15;;;6.90;72.90;;;;;;6064776;23;20026;-80
2024/01/15 11:10:54;;;;;;;10.45;6.68;;;6.90;72.80;;;;;;6091605;23;20557;-81
2024/01/15 11:13:39;;;;;;;9.52;6.60;;;6.90;72.70;;;;;;6089694;23;20046;-81
2024/01/15 11:16:07;;;;;;;9.63;7.13;;;6.90;73.10;;;;;;6091992;23;20017;-83
2024/01/15 11:18:59;;;;;;;9.32;7.25;;;6.90;72.90;;;;;;6089785;23;20014;-82
2024/01/15 11:21:27;;;;;;;11.18;6.07;;;6.90;72.50;;;;;;6064289;23;20022;-80
2024/01/15 11:23:57;;;;;;;9.23;6.40;;;6.90;72.10;;;;;;6088037;23;20117;-82
2024/01/15 11:26:44;;;;;;;8.73;6.85;;;6.80;72.10;;;;;;6090968;23;20026;-82
2024/01/15 11:29:28;;;;;;;8.98;6.55;;;6.90;72.10;;;;;;6088476;23;20478;-80
2024/01/15 11:32:02;;;;;;;9.02;6.43;;;6.90;72.00;;;;;;6090618;23;20026;-81
2024/01/15 11:35:01;;;;;;;8.50;6.82;;;6.80;71.90;;;;;;6088984;23;20422;-81
2024/01/15 11:37:54;;;;;;;10.95;7.28;;;6.80;71.80;;;;;;6055272;23;20057;-83
2024/01/15 11:40:33;;;;;;;8.95;6.43;;;6.80;72.00;;;;;;6089149;23;20086;-82
2024/01/15 11:42:59;;;;;;;8.48;6.47;;;6.80;71.90;;;;;;6067772;23;20679;-82
2024/01/15 11:45:26;;;;;;;9.40;6.47;;;6.90;71.90;;;;;;6041346;23;20489;-83
2024/01/15 11:48:16;;;;;;;8.82;6.07;;;6.80;71.40;;;;;;6087779;23;20747;-81
2024/01/15 11:50:50;;;;;;;7.90;6.57;;;6.80;71.50;;;;;;6089350;23;20093;-81
2024/01/15 11:53:37;;;;;;;8.70;6.57;;;6.80;71.70;;;;;;6088221;23;20022;-83
2024/01/15 11:56:11;;;;;;;8.43;6.13;;;6.80;72.50;;;;;;6078661;23;20022;-80
2024/01/15 11:58:38;;;;;;;10.43;7.13;;;6.90;72.50;;;;;;6089308;23;20014;-81
2024/01/15 12:01:04;;;;;;;9.23;6.28;;;6.90;72.90;;;;;;6064142;23;20030;-83
2024/01/15 12:03:33;;;;;;;8.15;5.82;;;6.90;73.30;;;;;;6090963;23;20469;-82
2024/01/15 12:05:59;;;;;;;9.55;6.43;;;6.90;72.60;;;;;;6088929;23;20347;-82
2024/01/15 12:08:27;;;;;;;9.85;6.78;;;6.90;72.80;;;;;;6090700;23;20027;-82
2024/01/15 12:10:53;;;;;;;9.15;6.60;;;6.90;72.50;;;;;;6090629;23;20015;-81
2024/01/15 12:13:20;;;;;;;10.63;6.45;;;6.90;72.70;;;;;;6089088;23;20018;-82
2024/01/15 12:15:48;;;;;;;11.00;6.38;;;6.90;72.40;;;;;;6065969;23;20015;-80
2024/01/15 12:18:16;;;;;;;7.68;5.85;;;6.90;72.30;;;;;;6065346;23;20762;-81
2024/01/15 12:20:46;;;;;;;8.18;6.43;;;6.90;72.20;;;;;;6090441;23;20476;-82
2024/01/15 12:23:13;;;;;;;9.65;6.63;;;6.90;72.30;;;;;;6065109;23;20465;-80
2024/01/15 12:25:39;;;;;;;7.55;6.15;;;6.90;72.00;;;;;;6089855;23;20050;-81
2024/01/15 12:28:06;;;;;;;8.38;6.28;;;6.90;71.90;;;;;;6089621;23;20025;-84
2024/01/15 12:30:35;;;;;;;9.00;6.40;;;6.90;71.60;;;;;;6063962;23;20039;-79
2024/01/15 12:33:06;;;;;;;9.48;6.50;;;6.90;71.40;;;;;;6086652;23;20042;-79
2024/01/15 12:35:34;;;;;;;8.75;6.43;;;6.90;71.20;;;;;;6088083;23;20427;-80
2024/01/15 12:38:03;;;;;;;7.45;6.03;;;6.90;71.80;;;;;;6088758;23;20019;-79
2024/01/15 12:40:32;;;;;;;9.30;6.68;;;6.90;71.40;;;;;;6063817;23;20021;-80
2024/01/15 12:42:58;;;;;;;7.38;5.72;;;6.90;71.20;;;;;;6089020;23;20343;-81
2024/01/15 12:45:24;;;;;;;9.35;6.20;;;6.90;71.40;;;;;;6090807;23;20486;-81
2024/01/15 12:47:51;;;;;;;10.20;6.40;;;6.90;71.30;;;;;;6095912;23;20030;-81
2024/01/15 12:50:17;;;;;;;9.00;6.22;;;6.90;71.30;;;;;;6054590;23;20026;-79
2024/01/15 12:52:43;;;;;;;9.63;6.18;;;6.90;71.40;;;;;;6103136;23;20025;-78
2024/01/15 12:55:10;;;;;;;9.48;5.88;;;6.90;71.40;;;;;;6079029;23;20485;-79